Nearby METAR Reports

 

KSJC - San Jose, California, USA
Distance from station: NE 14km
Updated: 2021-07-31 02:53
Clear
Clear
 Wind from NW
Wind: NW 9 km/h
Temperature: 17°C
Dew Point: 13°C
Humidity: 77%
Barometer: 1014.9 hPa
Clouds: Clear
Visibility: 16 km
2021/07/31 07:53 KSJC 310753Z AUTO 32005KT 10SM CLR 17/13 A2997 RMK AO2 SLP147 T01720133 402830161
KNUQ - Moffett Nas/Mtn, California, USA
Distance from station: N 14km
Updated: 2021-07-31 02:50
Clear
Clear
 Wind from NW
Wind: NW 6 km/h
Temperature: 17°C
Dew Point: 15°C
Humidity: 88%
Barometer: 1014.9 hPa
Clouds: Clear
Visibility: 16 km
2021/07/31 07:50 KNUQ 310750Z AUTO 31003KT 10SM CLR 17/15 A2997 RMK AO2
 
KPAO - Palo Alto, California, USA
Distance from station: NNW 23km
Updated: 2021-07-30 22:47
NOT Current
Clear
Clear
 Wind from NNW
Wind: NNW 20 km/h
Temperature: 18°C
Dew Point: 16°C
Humidity: 88%
Barometer: 1013.9 hPa
Clouds: Clear
Visibility: 16 km
2021/07/31 03:47 KPAO 310347Z 34011KT 10SM SKC 18/16 A2994 RMK LAST
KRHV - San Jose/Reid, California, USA
Distance from station: ENE 19km
Updated: 2021-07-30 23:47
NOT Current
Clear
Clear
 Wind from WNW
Wind: WNW 9 km/h
Temperature: 20°C
Dew Point: 13°C
Humidity: 64%
Barometer: 1014.9 hPa
Clouds: Clear
Visibility: 16 km
2021/07/31 04:47 KRHV 310447Z 29005KT 10SM SKC 20/13 A2997 RMK LAST
 
KOAK - Oakland, California, USA
Distance from station: NNW 50km
Updated: 2021-07-31 02:53
Mostly cloudy
Mostly cloudy
 Wind from NW
Wind: NW 9 km/h
Temperature: 16°C
Dew Point: 13°C
Humidity: 83%
Barometer: 1015.2 hPa
Clouds: Mostly cloudy
Visibility: 16 km
Cloud details: Mostly cloudy 244 m
Mostly cloudy 5486 m
2021/07/31 07:53 KOAK 310753Z 32005KT 10SM BKN008 BKN180 16/13 A2998 RMK AO2 SLP150 T01560133 402170139
KSQL - San Carlos Airpo, California, USA
Distance from station: NW 34km
Updated: 2021-07-30 22:47
NOT Current

 
Visibility: 3 km
2021/07/31 03:47 KSQL 310347Z 3006KT 10SM SKC 18/13 A2994 RMK LAST
 
KSFO - San Francisco, California, USA
Distance from station: NW 49km
Updated: 2021-07-31 02:56
Few Clouds
Few Clouds
 Wind from WNW
Wind: WNW 11 km/h
Temperature: 16°C
Dew Point: 13°C
Humidity: 83%
Barometer: 1014.9 hPa
Clouds: Few Clouds
Visibility: 16 km
Cloud details: Few Clouds 91 m
Few Clouds 6096 m
2021/07/31 07:56 KSFO 310756Z 29006KT 10SM FEW003 FEW200 16/13 A2997 RMK AO2 SLP147 T01560133 402170133 $
KE16 - San Martin, California, USA
Distance from station: ESE 43km
Updated: 2021-07-31 02:55
Clear
Clear
 Wind from ESE
Wind: ESE 9 km/h
Temperature: 15°C
Dew Point: 13°C
Humidity: 88%
Barometer: 1016.3 hPa
Clouds: Clear
Visibility: 16 km
2021/07/31 07:55 KE16 310755Z AUTO 12005KT 10SM CLR 15/13 A3001 RMK AO2
 
KWVI - Watsonville, California, USA
Distance from station: SSE 44km
Updated: 2021-07-31 02:53
Overcast
Overcast
 Wind from WNW
Wind: WNW 6 km/h
Temperature: 14°C
Dew Point: 13°C
Humidity: 94%
Barometer: 1016.3 hPa
Clouds: Overcast
Visibility: 16 km
Cloud details: Overcast 122 m
2021/07/31 07:53 KWVI 310753Z AUTO 29003KT 10SM OVC004 14/13 A3001 RMK AO2 SLP160 T01440133 402330128
KHAF - Half Moon Bay, California, USA
Distance from station: WNW 50km
Updated: 2021-07-09 09:35
NOT Current
Light rain, Clear
Light rain, Clear
 
Temperature: 13°C
Dew Point: 12°C
Humidity: 94%
Barometer: 1012.9 hPa
Summary: Light rain
Clouds: Clear
Visibility: 6 km
2021/07/09 14:35 KHAF 091435Z AUTO 4SM -RA CLR 13/12 A2991 RMK AO2
 
KHWD - Hayward, California, USA
Distance from station: N 44km
Updated: 2021-07-31 02:54
Clear
Clear
 Wind from NW
Wind: NW 6 km/h
Temperature: 15°C
Dew Point: 13°C
Humidity: 88%
Barometer: 1014.9 hPa
Clouds: Clear
Visibility: 16 km
2021/07/31 07:54 KHWD 310754Z 31003KT 10SM CLR 15/13 A2997 RMK AO2 SLP156 T01500128 402560139
KLVK - Livermore, California, USA
Distance from station: NNE 51km
Updated: 2021-07-31 02:53
Clear
Clear
 Wind from W
Wind: W 11 km/h
Temperature: 19°C
Dew Point: 12°C
Humidity: 64%
Barometer: 1013.9 hPa
Clouds: Clear
Visibility: 16 km
2021/07/31 07:53 KLVK 310753Z AUTO 28006KT 10SM CLR 19/12 A2994 RMK AO2 SLP133 T01890117 403610178